Archival Weather

Habib Bourguiba Intl

Habib Bourguiba Intl, Tunisia (DTMB)

Report from: Sunday, October 1, 2023 2:00 AM CET
Current time: Saturday, March 2, 2024 11:26 AM CET

Current weather – Weather history – Daily summaries
Weather forecast

Temperature24.0°C (75.2°F)
Dew point19.0°C (66.2°F)
Winds 7 kts (3.6 m/s, 8.1 mph) North (360°)
Visibility6.2 mi. (10 km)
Clouds Few clouds 3,000 ft. (914 m)
Altimeter30.18 in.Hg (1022 mB)
Relative humidity74 %
Density altitude1,049 ft. (320 m)
Flight conditions Visual Meteorological Conditions
Raw dataDTMB 010100Z 36007KT 9999 FEW030 24/19 Q1022
An error has occurred. This application may no longer respond until reloaded. Reload 🗙